createdAt,value
2023-05-22T00:02:57.439Z,19.50
2023-05-22T00:06:00.755Z,19.50
2023-05-22T00:09:04.051Z,19.40
2023-05-22T00:12:08.032Z,19.40
2023-05-22T00:15:13.385Z,19.40
2023-05-22T00:18:16.535Z,19.30
2023-05-22T00:21:19.909Z,19.30
2023-05-22T00:24:22.986Z,19.20
2023-05-22T00:27:26.064Z,19.20
2023-05-22T00:30:30.641Z,19.20
2023-05-22T00:33:34.169Z,19.20
2023-05-22T00:36:38.690Z,19.20
2023-05-22T00:39:41.734Z,19.10
2023-05-22T00:42:45.023Z,19.00
2023-05-22T00:45:49.415Z,19.00
2023-05-22T00:48:52.934Z,18.90
2023-05-22T00:51:56.445Z,18.90
2023-05-22T00:55:01.167Z,18.90
2023-05-22T00:58:07.887Z,18.80
2023-05-22T01:01:13.339Z,18.80
2023-05-22T01:04:18.480Z,18.80
2023-05-22T01:07:21.666Z,18.70
2023-05-22T01:10:25.110Z,18.70
2023-05-22T01:13:35.391Z,18.70
2023-05-22T01:16:51.824Z,18.60
2023-05-22T01:20:07.581Z,18.60
2023-05-22T01:23:42.271Z,18.60
2023-05-22T01:27:07.258Z,18.60
2023-05-22T01:30:30.018Z,18.50
2023-05-22T01:33:43.172Z,18.40
2023-05-22T01:36:47.740Z,18.40
2023-05-22T01:39:52.952Z,18.40
2023-05-22T01:42:56.514Z,18.40
2023-05-22T01:46:01.523Z,18.30
2023-05-22T01:49:06.363Z,18.30
2023-05-22T01:52:14.979Z,18.30
2023-05-22T01:55:29.590Z,18.20
2023-05-22T01:58:38.838Z,18.20
2023-05-22T02:01:44.583Z,18.20
2023-05-22T02:04:56.878Z,18.10
2023-05-22T02:08:03.305Z,18.00
2023-05-22T02:11:07.232Z,18.00
2023-05-22T02:14:12.194Z,18.00
2023-05-22T02:17:18.076Z,17.90
2023-05-22T02:20:23.002Z,17.80
2023-05-22T02:23:26.254Z,17.80
2023-05-22T02:26:30.008Z,17.80
2023-05-22T02:29:33.123Z,17.80
2023-05-22T02:32:36.231Z,17.70
2023-05-22T02:35:40.748Z,17.60
2023-05-22T02:38:43.869Z,17.60
2023-05-22T02:41:47.252Z,17.50
2023-05-22T02:44:50.453Z,17.50
2023-05-22T02:47:53.575Z,17.50
2023-05-22T02:50:58.035Z,17.40
2023-05-22T02:54:01.096Z,17.40
2023-05-22T02:57:04.391Z,17.40
2023-05-22T03:00:11.716Z,17.30
2023-05-22T03:03:18.045Z,17.20
2023-05-22T03:06:23.483Z,17.20
2023-05-22T03:09:26.642Z,17.20
2023-05-22T03:12:29.977Z,17.20
2023-05-22T03:15:33.093Z,17.20
2023-05-22T03:18:37.229Z,17.10
2023-05-22T03:21:44.012Z,17.10
2023-05-22T03:24:47.065Z,17.10
2023-05-22T03:27:50.260Z,17.00
2023-05-22T03:30:53.653Z,17.00
2023-05-22T03:33:56.772Z,17.00
2023-05-22T03:37:01.142Z,17.00
2023-05-22T03:40:05.936Z,17.00
2023-05-22T03:43:10.735Z,17.00
2023-05-22T03:46:14.346Z,17.00
2023-05-22T03:49:17.521Z,17.10
2023-05-22T03:52:23.045Z,17.20
2023-05-22T03:55:26.636Z,17.10
2023-05-22T03:58:31.515Z,17.10
2023-05-22T04:01:34.642Z,17.00
2023-05-22T04:04:38.419Z,17.10
2023-05-22T04:07:43.321Z,17.10
2023-05-22T04:10:46.759Z,17.00
2023-05-22T04:13:51.844Z,17.00
2023-05-22T04:16:55.067Z,17.10
2023-05-22T04:19:58.540Z,17.10
2023-05-22T04:23:03.328Z,17.20
2023-05-22T04:26:08.872Z,17.20
2023-05-22T04:29:16.130Z,17.20
2023-05-22T04:32:21.847Z,17.30
2023-05-22T04:35:24.945Z,17.40
2023-05-22T04:38:29.807Z,17.50
2023-05-22T04:41:34.173Z,17.60
2023-05-22T04:44:38.243Z,17.70
2023-05-22T04:47:42.327Z,17.80
2023-05-22T04:50:46.313Z,17.80
2023-05-22T04:53:52.263Z,17.80
2023-05-22T04:56:55.480Z,18.00
2023-05-22T04:59:58.712Z,18.00
2023-05-22T05:03:02.127Z,18.10
2023-05-22T05:06:05.625Z,18.20
2023-05-22T05:09:10.322Z,18.30
2023-05-22T05:12:13.771Z,18.30
2023-05-22T05:15:16.943Z,18.30
2023-05-22T05:18:20.511Z,18.30
2023-05-22T05:21:24.499Z,18.30
2023-05-22T05:24:28.977Z,18.40
2023-05-22T05:27:32.068Z,18.50
2023-05-22T05:30:35.357Z,18.50
2023-05-22T05:33:38.399Z,18.50
2023-05-22T05:36:42.723Z,18.50
2023-05-22T05:39:47.244Z,18.40
2023-05-22T05:42:50.300Z,18.30
2023-05-22T05:45:53.466Z,18.40
2023-05-22T05:48:56.794Z,18.40
2023-05-22T05:52:00.122Z,18.70
2023-05-22T05:55:04.735Z,18.90
2023-05-22T05:58:07.863Z,19.20
2023-05-22T06:01:11.848Z,19.50
2023-05-22T06:04:15.539Z,20.00
2023-05-22T06:07:18.690Z,20.20
2023-05-22T06:10:23.356Z,20.60
2023-05-22T06:13:26.528Z,20.90
2023-05-22T06:16:30.079Z,21.10
2023-05-22T06:19:33.319Z,21.10
2023-05-22T06:22:36.673Z,21.20
2023-05-22T06:25:41.716Z,21.40
2023-05-22T06:33:00.937Z,21.30
2023-05-22T06:36:04.508Z,21.20
2023-05-22T06:39:08.785Z,21.30
2023-05-22T06:42:13.293Z,21.40
2023-05-22T06:45:19.645Z,21.60
2023-05-22T06:48:23.004Z,21.70
2023-05-22T06:51:34.497Z,21.90
2023-05-22T06:54:37.661Z,22.10
2023-05-22T06:57:42.290Z,22.20
2023-05-22T07:00:45.582Z,22.10
2023-05-22T07:03:48.753Z,22.20
2023-05-22T07:06:52.192Z,22.20
2023-05-22T07:09:55.257Z,22.30
2023-05-22T07:12:59.804Z,22.20
2023-05-22T07:16:02.971Z,22.20
2023-05-22T07:19:06.636Z,22.50
2023-05-22T07:22:09.784Z,22.50
2023-05-22T07:25:13.023Z,22.70
2023-05-22T07:28:17.865Z,22.50
2023-05-22T07:31:21.162Z,22.50
2023-05-22T07:34:29.890Z,22.50
2023-05-22T07:37:33.096Z,22.50
2023-05-22T07:40:36.227Z,22.30
2023-05-22T07:43:40.878Z,22.30
2023-05-22T07:46:44.515Z,22.50
2023-05-22T07:49:47.714Z,22.40
2023-05-22T07:52:51.357Z,22.50
2023-05-22T07:55:54.463Z,22.50
2023-05-22T07:58:59.041Z,22.80
2023-05-22T08:02:02.792Z,22.60
2023-05-22T08:05:06.890Z,22.70
2023-05-22T08:08:10.397Z,22.80
2023-05-22T08:11:13.739Z,22.90
2023-05-22T08:14:18.271Z,23.10
2023-05-22T08:17:21.472Z,23.20
2023-05-22T08:20:24.753Z,23.50
2023-05-22T08:23:28.017Z,23.50
2023-05-22T08:26:33.257Z,23.50
2023-05-22T08:29:37.809Z,23.50
2023-05-22T08:32:41.048Z,23.60
2023-05-22T08:35:44.260Z,24.00
2023-05-22T08:38:47.483Z,24.10
2023-05-22T08:41:50.651Z,24.30
2023-05-22T08:44:58.082Z,24.30
2023-05-22T08:48:06.424Z,24.40
2023-05-22T08:51:14.703Z,24.40
2023-05-22T08:54:20.157Z,24.50
2023-05-22T08:57:24.360Z,24.70
2023-05-22T09:00:29.719Z,24.80
2023-05-22T09:03:34.331Z,25.00
2023-05-22T09:06:39.069Z,25.40
2023-05-22T09:09:42.724Z,25.60
2023-05-22T09:13:07.943Z,25.70
2023-05-22T09:16:13.973Z,25.60
2023-05-22T09:19:17.661Z,25.60
2023-05-22T09:22:22.394Z,25.60
2023-05-22T09:25:29.174Z,25.50
2023-05-22T09:28:35.228Z,25.60
2023-05-22T09:31:44.725Z,25.70
2023-05-22T09:34:48.257Z,25.80
2023-05-22T09:37:51.787Z,26.00
2023-05-22T09:40:55.809Z,26.00
2023-05-22T09:44:01.145Z,25.80
2023-05-22T09:47:07.841Z,25.60
2023-05-22T09:50:11.760Z,25.60
2023-05-22T09:53:18.496Z,25.50
2023-05-22T09:56:34.874Z,25.60
2023-05-22T09:59:43.779Z,25.60
2023-05-22T10:02:50.292Z,25.60
2023-05-22T10:05:56.079Z,25.80
2023-05-22T10:09:05.111Z,25.80
2023-05-22T10:12:10.865Z,25.80
2023-05-22T10:15:15.152Z,25.80
2023-05-22T10:18:19.867Z,25.80
2023-05-22T10:21:25.733Z,26.00
2023-05-22T10:24:29.914Z,26.20
2023-05-22T10:27:33.187Z,26.20
2023-05-22T10:30:43.777Z,26.30
2023-05-22T10:33:53.782Z,26.30
2023-05-22T10:37:18.058Z,26.30
2023-05-22T10:40:30.275Z,26.40
2023-05-22T10:43:33.829Z,26.60
2023-05-22T10:46:38.214Z,26.60
2023-05-22T10:49:45.484Z,26.70
2023-05-22T10:52:49.102Z,26.70
2023-05-22T10:55:53.457Z,26.70
2023-05-22T10:59:02.678Z,26.50
2023-05-22T11:02:09.025Z,26.40
2023-05-22T11:05:37.686Z,26.50
2023-05-22T11:08:41.164Z,26.50
2023-05-22T11:11:46.334Z,26.40
2023-05-22T11:14:54.414Z,26.40
2023-05-22T11:18:04.419Z,26.40
2023-05-22T11:21:13.687Z,26.40
2023-05-22T11:24:18.910Z,26.40
2023-05-22T11:27:22.163Z,26.50
2023-05-22T11:30:27.917Z,26.60
2023-05-22T11:33:31.318Z,26.60
2023-05-22T11:36:37.496Z,26.70
2023-05-22T11:39:40.628Z,26.90
2023-05-22T11:42:44.028Z,27.00
2023-05-22T11:45:47.145Z,27.00
2023-05-22T11:48:50.381Z,26.80
2023-05-22T11:51:55.292Z,26.70
2023-05-22T11:54:58.430Z,26.40
2023-05-22T11:58:02.943Z,26.40
2023-05-22T12:01:06.813Z,26.40
2023-05-22T12:04:10.048Z,26.50
2023-05-22T12:07:15.192Z,26.60
2023-05-22T12:10:18.363Z,26.60
2023-05-22T12:13:25.836Z,26.70
2023-05-22T12:16:29.199Z,26.70
2023-05-22T12:19:34.162Z,26.60
2023-05-22T12:22:45.150Z,26.60
2023-05-22T12:25:48.623Z,26.70
2023-05-22T12:28:55.535Z,26.60
2023-05-22T12:32:03.938Z,26.50
2023-05-22T12:35:08.057Z,26.40
2023-05-22T12:38:13.573Z,26.40
2023-05-22T12:41:16.830Z,26.40
2023-05-22T12:44:19.913Z,26.50
2023-05-22T12:47:24.519Z,26.50
2023-05-22T12:50:27.686Z,26.50
2023-05-22T12:53:32.467Z,26.40
2023-05-22T12:56:35.705Z,26.50
2023-05-22T12:59:38.816Z,26.70
2023-05-22T13:02:42.305Z,26.90
2023-05-22T13:05:46.410Z,26.90
2023-05-22T13:08:51.104Z,27.00
2023-05-22T13:11:54.311Z,27.20
2023-05-22T13:14:57.478Z,27.50
2023-05-22T13:18:08.119Z,27.30
2023-05-22T13:21:12.577Z,27.30
2023-05-22T13:24:17.206Z,27.20
2023-05-22T13:27:20.542Z,27.10
2023-05-22T13:30:23.598Z,27.00
2023-05-22T13:33:26.861Z,27.00
2023-05-22T13:36:30.012Z,27.10
2023-05-22T13:39:34.767Z,26.90
2023-05-22T13:42:38.428Z,26.90
2023-05-22T13:45:41.962Z,27.00
2023-05-22T13:48:45.285Z,27.00
2023-05-22T13:51:48.356Z,27.00
2023-05-22T13:54:52.872Z,27.00
2023-05-22T13:57:56.209Z,27.30
2023-05-22T14:00:59.372Z,27.30
2023-05-22T14:04:02.495Z,27.50
2023-05-22T14:07:06.019Z,27.50
2023-05-22T14:10:13.048Z,27.50
2023-05-22T14:13:16.189Z,27.50
2023-05-22T14:16:19.304Z,27.50
2023-05-22T14:19:22.503Z,27.50
2023-05-22T14:22:25.698Z,27.40
2023-05-22T14:25:30.186Z,27.30
2023-05-22T14:28:33.912Z,27.20
2023-05-22T14:31:50.443Z,27.20
2023-05-22T14:34:54.741Z,27.10
2023-05-22T14:37:57.826Z,27.20
2023-05-22T14:41:02.705Z,27.20
2023-05-22T14:44:06.633Z,27.30
2023-05-22T14:47:09.747Z,27.40
2023-05-22T14:50:19.544Z,27.50
2023-05-22T14:53:23.998Z,27.20
2023-05-22T14:56:28.437Z,27.40
2023-05-22T14:59:31.852Z,27.60
2023-05-22T15:02:34.953Z,27.40
2023-05-22T15:05:38.093Z,27.40
2023-05-22T15:08:41.319Z,27.50
2023-05-22T15:11:49.058Z,27.60
2023-05-22T15:14:52.049Z,27.90
2023-05-22T15:17:55.606Z,28.40
2023-05-22T15:20:58.739Z,28.30
2023-05-22T15:24:01.827Z,28.10
2023-05-22T15:27:07.972Z,28.00
2023-05-22T15:30:12.143Z,27.80
2023-05-22T15:33:15.803Z,27.50
2023-05-22T15:36:19.024Z,27.50
2023-05-22T15:39:22.128Z,27.40
2023-05-22T15:42:26.525Z,27.20
2023-05-22T15:45:30.506Z,27.10
2023-05-22T15:48:33.546Z,27.10
2023-05-22T15:51:37.208Z,27.00
2023-05-22T15:54:40.201Z,26.90
2023-05-22T15:57:44.641Z,26.70
2023-05-22T16:00:47.703Z,26.60
2023-05-22T16:03:50.865Z,26.50
2023-05-22T16:06:54.108Z,26.40
2023-05-22T16:09:57.123Z,26.20
2023-05-22T16:13:05.068Z,26.20
2023-05-22T16:16:08.339Z,26.20
2023-05-22T16:19:12.087Z,26.10
2023-05-22T16:22:15.339Z,26.20
2023-05-22T16:25:19.141Z,26.20
2023-05-22T16:28:23.547Z,26.20
2023-05-22T16:31:26.837Z,26.10
2023-05-22T16:34:31.837Z,26.00
2023-05-22T16:37:35.038Z,25.80
2023-05-22T16:40:38.117Z,25.60
2023-05-22T16:43:42.518Z,25.60
2023-05-22T16:46:45.841Z,25.60
2023-05-22T16:49:48.935Z,25.50
2023-05-22T16:52:52.046Z,25.50
2023-05-22T16:55:55.646Z,25.40
2023-05-22T16:59:00.188Z,25.40
2023-05-22T17:02:03.738Z,25.30
2023-05-22T17:05:08.444Z,25.20
2023-05-22T17:08:11.609Z,25.10
2023-05-22T17:11:14.724Z,25.00
2023-05-22T17:14:21.572Z,25.00
2023-05-22T17:17:24.651Z,24.80
2023-05-22T17:20:29.303Z,24.80
2023-05-22T17:23:32.353Z,24.80
2023-05-22T17:26:35.490Z,24.80
2023-05-22T17:29:39.851Z,24.90
2023-05-22T17:32:44.832Z,24.80
2023-05-22T17:35:48.019Z,24.70
2023-05-22T17:38:51.101Z,24.40
2023-05-22T17:41:54.157Z,24.40
2023-05-22T17:44:58.835Z,24.30
2023-05-22T17:48:01.893Z,24.20
2023-05-22T17:51:05.681Z,24.00
2023-05-22T17:54:09.318Z,23.90
2023-05-22T17:57:12.316Z,23.90
2023-05-22T18:00:18.282Z,23.80
2023-05-22T18:03:21.488Z,23.60
2023-05-22T18:06:25.067Z,23.60
2023-05-22T18:09:28.086Z,23.60
2023-05-22T18:12:32.282Z,23.50
2023-05-22T18:15:36.832Z,23.40
2023-05-22T18:18:39.943Z,23.40
2023-05-22T18:21:43.591Z,23.30
2023-05-22T18:24:46.744Z,23.20
2023-05-22T18:27:49.890Z,23.10
2023-05-22T18:30:54.922Z,23.00
2023-05-22T18:33:57.960Z,22.80
2023-05-22T18:37:01.190Z,22.80
2023-05-22T18:40:06.447Z,22.70
2023-05-22T18:43:09.468Z,22.70
2023-05-22T18:46:14.077Z,22.60
2023-05-22T18:49:17.097Z,22.60
2023-05-22T18:52:20.212Z,22.50
2023-05-22T18:55:23.993Z,22.40
2023-05-22T18:58:28.046Z,22.30
2023-05-22T19:01:33.073Z,22.20
2023-05-22T19:04:36.320Z,22.00
2023-05-22T19:07:40.975Z,22.00
2023-05-22T19:10:44.136Z,21.90
2023-05-22T19:13:47.313Z,21.90
2023-05-22T19:16:51.841Z,21.80
2023-05-22T19:19:54.983Z,21.70
2023-05-22T19:22:59.797Z,21.60
2023-05-22T19:26:03.798Z,21.50
2023-05-22T19:29:07.252Z,21.40
2023-05-22T19:32:11.709Z,21.30
2023-05-22T19:35:14.830Z,21.30
2023-05-22T19:38:18.042Z,21.10
2023-05-22T19:41:22.816Z,21.10
2023-05-22T19:44:26.012Z,21.10
2023-05-22T19:47:30.440Z,21.00
2023-05-22T19:50:35.479Z,21.00
2023-05-22T19:53:38.641Z,20.90
2023-05-22T19:56:41.776Z,20.80
2023-05-22T19:59:45.851Z,20.70
2023-05-22T20:02:50.491Z,20.60
2023-05-22T20:05:54.247Z,20.60
2023-05-22T20:08:57.376Z,20.50
2023-05-22T20:12:00.438Z,20.50
2023-05-22T20:15:04.344Z,20.40
2023-05-22T20:18:09.021Z,20.30
2023-05-22T20:21:12.081Z,20.20
2023-05-22T20:24:18.890Z,20.10
2023-05-22T20:27:23.087Z,20.10
2023-05-22T20:30:26.250Z,20.00
2023-05-22T20:33:31.013Z,20.00
2023-05-22T20:36:35.024Z,19.90
2023-05-22T20:39:38.156Z,19.90
2023-05-22T20:42:42.520Z,19.90
2023-05-22T20:45:47.060Z,19.80
2023-05-22T20:48:52.004Z,19.80
2023-05-22T20:51:55.467Z,19.70
2023-05-22T20:54:58.907Z,19.70
2023-05-22T20:58:02.296Z,19.60
2023-05-22T21:01:06.148Z,19.50
2023-05-22T21:04:10.803Z,19.50
2023-05-22T21:07:14.279Z,19.50
2023-05-22T21:10:17.658Z,19.40
2023-05-22T21:13:20.937Z,19.40
2023-05-22T21:16:26.270Z,19.30
2023-05-22T21:19:31.284Z,19.40
2023-05-22T21:22:34.674Z,19.50
2023-05-22T21:25:37.989Z,19.50
2023-05-22T21:28:41.317Z,19.40
2023-05-22T21:31:44.629Z,19.40
2023-05-22T21:34:49.307Z,19.30
2023-05-22T21:37:53.916Z,19.30
2023-05-22T21:40:57.038Z,19.30
2023-05-22T21:44:00.573Z,19.30
2023-05-22T21:47:03.976Z,19.20
2023-05-22T21:50:09.588Z,19.20
2023-05-22T21:53:13.060Z,19.20
2023-05-22T21:56:16.428Z,19.10
2023-05-22T21:59:19.556Z,19.10
2023-05-22T22:02:22.911Z,19.00
2023-05-22T22:05:27.654Z,19.00
2023-05-22T22:08:30.768Z,19.00
2023-05-22T22:11:34.218Z,19.00
2023-05-22T22:14:37.566Z,19.00
2023-05-22T22:17:40.807Z,18.90
2023-05-22T22:20:45.865Z,18.90
2023-05-22T22:23:50.469Z,18.90
2023-05-22T22:26:53.646Z,18.90
2023-05-22T22:29:56.716Z,18.80
2023-05-22T22:32:59.840Z,18.80
2023-05-22T22:36:04.270Z,18.80
2023-05-22T22:39:07.390Z,18.70
2023-05-22T22:42:10.564Z,18.70
2023-05-22T22:45:14.770Z,18.70
2023-05-22T22:48:22.256Z,18.70
2023-05-22T22:51:27.016Z,18.70
2023-05-22T22:54:30.222Z,18.60
2023-05-22T22:57:33.973Z,18.60
2023-05-22T23:00:37.590Z,18.60
2023-05-22T23:03:40.756Z,18.60
2023-05-22T23:06:47.334Z,18.60
2023-05-22T23:09:50.715Z,18.50
2023-05-22T23:12:54.227Z,18.60
2023-05-22T23:15:57.418Z,18.60
2023-05-22T23:19:00.717Z,18.50
2023-05-22T23:22:05.843Z,18.50
2023-05-22T23:25:09.500Z,18.50
2023-05-22T23:28:12.585Z,18.50
2023-05-22T23:31:16.384Z,18.50
2023-05-22T23:34:20.739Z,18.50
2023-05-22T23:37:25.453Z,18.40
2023-05-22T23:40:28.965Z,18.30
2023-05-22T23:43:32.066Z,18.30
2023-05-22T23:46:35.801Z,18.30
2023-05-22T23:49:38.875Z,18.30
2023-05-22T23:52:43.402Z,18.30
2023-05-22T23:55:46.657Z,18.20
2023-05-22T23:58:49.729Z,18.20
